sensor_id;sensor_type;location;lat;lon;timestamp;P1;durP1;ratioP1;P2;durP2;ratioP2
20443;SDS011;10381;53.730;10.010;2023-07-13T00:03:49;10.38;;;4.28;;
20443;SDS011;10381;53.730;10.010;2023-07-13T00:07:50;11.97;;;4.07;;
20443;SDS011;10381;53.730;10.010;2023-07-13T00:11:51;9.27;;;3.83;;
20443;SDS011;10381;53.730;10.010;2023-07-13T00:15:53;7.78;;;3.92;;
20443;SDS011;10381;53.730;10.010;2023-07-13T00:19:54;8.20;;;3.95;;
20443;SDS011;10381;53.730;10.010;2023-07-13T00:23:55;11.85;;;3.80;;
20443;SDS011;10381;53.730;10.010;2023-07-13T00:27:55;9.60;;;4.10;;
20443;SDS011;10381;53.730;10.010;2023-07-13T00:31:56;13.05;;;4.40;;
20443;SDS011;10381;53.730;10.010;2023-07-13T00:35:57;6.88;;;4.07;;
20443;SDS011;10381;53.730;10.010;2023-07-13T00:39:58;10.80;;;4.30;;
20443;SDS011;10381;53.730;10.010;2023-07-13T00:43:58;7.87;;;3.80;;
20443;SDS011;10381;53.730;10.010;2023-07-13T00:47:58;9.95;;;4.60;;
20443;SDS011;10381;53.730;10.010;2023-07-13T00:52:00;14.18;;;3.70;;
20443;SDS011;10381;53.730;10.010;2023-07-13T00:56:03;9.82;;;3.95;;
20443;SDS011;10381;53.730;10.010;2023-07-13T01:00:05;8.35;;;4.07;;
20443;SDS011;10381;53.730;10.010;2023-07-13T01:04:09;13.52;;;4.15;;
20443;SDS011;10381;53.730;10.010;2023-07-13T01:08:10;14.57;;;4.22;;
20443;SDS011;10381;53.730;10.010;2023-07-13T01:12:10;15.80;;;5.20;;
20443;SDS011;10381;53.730;10.010;2023-07-13T01:16:13;19.80;;;5.95;;
20443;SDS011;10381;53.730;10.010;2023-07-13T01:20:17;8.88;;;4.25;;
20443;SDS011;10381;53.730;10.010;2023-07-13T01:24:18;11.63;;;4.78;;
20443;SDS011;10381;53.730;10.010;2023-07-13T01:28:18;18.25;;;5.40;;
20443;SDS011;10381;53.730;10.010;2023-07-13T01:32:20;16.75;;;5.43;;
20443;SDS011;10381;53.730;10.010;2023-07-13T01:36:24;13.52;;;5.47;;
20443;SDS011;10381;53.730;10.010;2023-07-13T01:40:27;16.52;;;5.40;;
20443;SDS011;10381;53.730;10.010;2023-07-13T01:44:46;17.05;;;6.13;;
20443;SDS011;10381;53.730;10.010;2023-07-13T01:48:46;17.73;;;6.03;;
20443;SDS011;10381;53.730;10.010;2023-07-13T01:52:46;14.48;;;5.22;;
20443;SDS011;10381;53.730;10.010;2023-07-13T01:56:47;20.70;;;5.90;;
20443;SDS011;10381;53.730;10.010;2023-07-13T02:00:48;14.48;;;5.80;;
20443;SDS011;10381;53.730;10.010;2023-07-13T02:04:49;14.82;;;6.55;;
20443;SDS011;10381;53.730;10.010;2023-07-13T02:08:50;13.03;;;6.83;;
20443;SDS011;10381;53.730;10.010;2023-07-13T02:12:50;14.55;;;6.88;;
20443;SDS011;10381;53.730;10.010;2023-07-13T02:16:51;14.40;;;6.50;;
20443;SDS011;10381;53.730;10.010;2023-07-13T02:20:51;16.85;;;7.38;;
20443;SDS011;10381;53.730;10.010;2023-07-13T02:24:52;19.17;;;7.43;;
20443;SDS011;10381;53.730;10.010;2023-07-13T02:28:52;16.95;;;7.20;;
20443;SDS011;10381;53.730;10.010;2023-07-13T02:32:52;17.90;;;7.47;;
20443;SDS011;10381;53.730;10.010;2023-07-13T02:36:53;18.07;;;7.43;;
20443;SDS011;10381;53.730;10.010;2023-07-13T02:40:53;29.50;;;8.30;;
20443;SDS011;10381;53.730;10.010;2023-07-13T02:44:53;22.85;;;8.57;;
20443;SDS011;10381;53.730;10.010;2023-07-13T02:48:54;23.83;;;9.32;;
20443;SDS011;10381;53.730;10.010;2023-07-13T02:52:54;19.85;;;8.70;;
20443;SDS011;10381;53.730;10.010;2023-07-13T02:56:54;32.77;;;8.93;;
20443;SDS011;10381;53.730;10.010;2023-07-13T03:00:55;18.43;;;8.97;;
20443;SDS011;10381;53.730;10.010;2023-07-13T03:04:55;20.88;;;8.45;;
20443;SDS011;10381;53.730;10.010;2023-07-13T03:08:56;26.58;;;8.80;;
20443;SDS011;10381;53.730;10.010;2023-07-13T03:12:56;18.55;;;8.32;;
20443;SDS011;10381;53.730;10.010;2023-07-13T03:16:57;21.13;;;9.63;;
20443;SDS011;10381;53.730;10.010;2023-07-13T03:20:57;19.80;;;9.20;;
20443;SDS011;10381;53.730;10.010;2023-07-13T03:24:58;20.08;;;8.93;;
20443;SDS011;10381;53.730;10.010;2023-07-13T03:28:58;19.88;;;9.10;;
20443;SDS011;10381;53.730;10.010;2023-07-13T03:32:58;21.02;;;8.80;;
20443;SDS011;10381;53.730;10.010;2023-07-13T03:36:59;25.03;;;10.23;;
20443;SDS011;10381;53.730;10.010;2023-07-13T03:40:59;19.08;;;8.98;;
20443;SDS011;10381;53.730;10.010;2023-07-13T03:44:59;24.48;;;9.73;;
20443;SDS011;10381;53.730;10.010;2023-07-13T03:49:00;25.47;;;9.27;;
20443;SDS011;10381;53.730;10.010;2023-07-13T03:53:01;21.85;;;9.15;;
20443;SDS011;10381;53.730;10.010;2023-07-13T03:57:01;23.77;;;9.17;;
20443;SDS011;10381;53.730;10.010;2023-07-13T04:01:02;17.50;;;9.43;;
20443;SDS011;10381;53.730;10.010;2023-07-13T04:05:05;24.58;;;8.27;;
20443;SDS011;10381;53.730;10.010;2023-07-13T04:09:06;20.63;;;8.73;;
20443;SDS011;10381;53.730;10.010;2023-07-13T04:13:07;27.50;;;9.77;;
20443;SDS011;10381;53.730;10.010;2023-07-13T04:17:07;26.50;;;10.43;;
20443;SDS011;10381;53.730;10.010;2023-07-13T04:21:07;22.23;;;11.27;;
20443;SDS011;10381;53.730;10.010;2023-07-13T04:25:09;29.92;;;10.38;;
20443;SDS011;10381;53.730;10.010;2023-07-13T04:29:09;28.90;;;10.77;;
20443;SDS011;10381;53.730;10.010;2023-07-13T04:33:09;16.83;;;10.93;;
20443;SDS011;10381;53.730;10.010;2023-07-13T04:37:10;20.02;;;12.15;;
20443;SDS011;10381;53.730;10.010;2023-07-13T04:41:10;22.53;;;11.10;;
20443;SDS011;10381;53.730;10.010;2023-07-13T04:45:11;21.05;;;11.43;;
20443;SDS011;10381;53.730;10.010;2023-07-13T04:49:12;19.58;;;9.40;;
20443;SDS011;10381;53.730;10.010;2023-07-13T04:53:13;15.53;;;9.03;;
20443;SDS011;10381;53.730;10.010;2023-07-13T04:57:13;18.55;;;9.07;;
20443;SDS011;10381;53.730;10.010;2023-07-13T05:01:13;22.03;;;9.90;;
20443;SDS011;10381;53.730;10.010;2023-07-13T05:05:13;13.47;;;8.67;;
20443;SDS011;10381;53.730;10.010;2023-07-13T05:09:14;18.90;;;7.00;;
20443;SDS011;10381;53.730;10.010;2023-07-13T05:13:14;12.43;;;7.20;;
20443;SDS011;10381;53.730;10.010;2023-07-13T05:17:14;13.40;;;8.27;;
20443;SDS011;10381;53.730;10.010;2023-07-13T05:21:15;14.23;;;9.57;;
20443;SDS011;10381;53.730;10.010;2023-07-13T05:25:15;19.48;;;10.10;;
20443;SDS011;10381;53.730;10.010;2023-07-13T05:29:16;13.48;;;11.93;;
20443;SDS011;10381;53.730;10.010;2023-07-13T05:33:16;13.17;;;11.30;;
20443;SDS011;10381;53.730;10.010;2023-07-13T05:37:16;16.88;;;11.82;;
20443;SDS011;10381;53.730;10.010;2023-07-13T05:41:18;15.25;;;11.30;;
20443;SDS011;10381;53.730;10.010;2023-07-13T05:45:18;13.75;;;10.35;;
20443;SDS011;10381;53.730;10.010;2023-07-13T05:49:19;16.40;;;9.67;;
20443;SDS011;10381;53.730;10.010;2023-07-13T05:53:19;12.15;;;8.30;;
20443;SDS011;10381;53.730;10.010;2023-07-13T05:57:19;18.33;;;8.63;;
20443;SDS011;10381;53.730;10.010;2023-07-13T06:01:19;9.93;;;7.80;;
20443;SDS011;10381;53.730;10.010;2023-07-13T06:05:20;11.25;;;6.78;;
20443;SDS011;10381;53.730;10.010;2023-07-13T06:09:21;17.52;;;7.72;;
20443;SDS011;10381;53.730;10.010;2023-07-13T06:13:21;18.33;;;7.50;;
20443;SDS011;10381;53.730;10.010;2023-07-13T06:17:21;14.40;;;7.87;;
20443;SDS011;10381;53.730;10.010;2023-07-13T06:21:22;13.87;;;6.80;;
20443;SDS011;10381;53.730;10.010;2023-07-13T06:25:23;21.55;;;7.65;;
20443;SDS011;10381;53.730;10.010;2023-07-13T06:29:23;17.02;;;7.57;;
20443;SDS011;10381;53.730;10.010;2023-07-13T06:33:24;16.83;;;7.60;;
20443;SDS011;10381;53.730;10.010;2023-07-13T06:37:25;13.77;;;7.95;;
20443;SDS011;10381;53.730;10.010;2023-07-13T06:41:25;23.87;;;9.03;;
20443;SDS011;10381;53.730;10.010;2023-07-13T06:45:27;13.07;;;8.23;;
20443;SDS011;10381;53.730;10.010;2023-07-13T06:49:27;28.27;;;8.50;;
20443;SDS011;10381;53.730;10.010;2023-07-13T06:53:28;13.43;;;8.50;;
20443;SDS011;10381;53.730;10.010;2023-07-13T06:57:28;20.23;;;9.90;;
20443;SDS011;10381;53.730;10.010;2023-07-13T07:01:28;14.03;;;9.80;;
20443;SDS011;10381;53.730;10.010;2023-07-13T07:05:29;18.30;;;10.93;;
20443;SDS011;10381;53.730;10.010;2023-07-13T07:09:29;17.63;;;10.40;;
20443;SDS011;10381;53.730;10.010;2023-07-13T07:13:31;20.27;;;11.57;;
20443;SDS011;10381;53.730;10.010;2023-07-13T07:17:31;17.73;;;11.73;;
20443;SDS011;10381;53.730;10.010;2023-07-13T07:21:31;16.73;;;10.40;;
20443;SDS011;10381;53.730;10.010;2023-07-13T07:25:32;13.23;;;11.70;;
20443;SDS011;10381;53.730;10.010;2023-07-13T07:29:35;13.85;;;10.98;;
20443;SDS011;10381;53.730;10.010;2023-07-13T07:33:35;18.90;;;11.27;;
20443;SDS011;10381;53.730;10.010;2023-07-13T07:37:35;13.93;;;10.93;;
20443;SDS011;10381;53.730;10.010;2023-07-13T07:41:36;13.95;;;10.18;;
20443;SDS011;10381;53.730;10.010;2023-07-13T07:45:36;16.57;;;11.17;;
20443;SDS011;10381;53.730;10.010;2023-07-13T07:49:37;16.10;;;12.30;;
20443;SDS011;10381;53.730;10.010;2023-07-13T07:53:38;13.20;;;11.75;;
20443;SDS011;10381;53.730;10.010;2023-07-13T07:57:38;15.53;;;13.10;;
20443;SDS011;10381;53.730;10.010;2023-07-13T08:01:38;17.97;;;12.77;;
20443;SDS011;10381;53.730;10.010;2023-07-13T08:05:43;13.20;;;12.10;;
20443;SDS011;10381;53.730;10.010;2023-07-13T08:09:43;14.93;;;13.20;;
20443;SDS011;10381;53.730;10.010;2023-07-13T08:13:44;18.13;;;13.32;;
20443;SDS011;10381;53.730;10.010;2023-07-13T08:17:44;15.07;;;11.27;;
20443;SDS011;10381;53.730;10.010;2023-07-13T08:21:44;15.67;;;12.40;;
20443;SDS011;10381;53.730;10.010;2023-07-13T08:25:50;20.80;;;12.83;;
20443;SDS011;10381;53.730;10.010;2023-07-13T08:29:53;16.75;;;13.32;;
20443;SDS011;10381;53.730;10.010;2023-07-13T08:33:54;20.05;;;13.68;;
20443;SDS011;10381;53.730;10.010;2023-07-13T08:37:54;16.87;;;14.23;;
20443;SDS011;10381;53.730;10.010;2023-07-13T08:41:56;20.27;;;14.93;;
20443;SDS011;10381;53.730;10.010;2023-07-13T08:50:17;18.23;;;14.95;;
20443;SDS011;10381;53.730;10.010;2023-07-13T08:54:29;16.92;;;15.18;;
20443;SDS011;10381;53.730;10.010;2023-07-13T08:58:34;18.45;;;15.43;;
20443;SDS011;10381;53.730;10.010;2023-07-13T09:15:14;18.25;;;16.10;;
20443;SDS011;10381;53.730;10.010;2023-07-13T09:19:25;16.52;;;15.02;;
20443;SDS011;10381;53.730;10.010;2023-07-13T09:23:30;17.35;;;15.20;;
20443;SDS011;10381;53.730;10.010;2023-07-13T09:27:34;19.60;;;14.73;;
20443;SDS011;10381;53.730;10.010;2023-07-13T09:31:42;16.95;;;15.30;;
20443;SDS011;10381;53.730;10.010;2023-07-13T09:35:48;15.82;;;14.43;;
20443;SDS011;10381;53.730;10.010;2023-07-13T09:39:51;26.80;;;15.35;;
20443;SDS011;10381;53.730;10.010;2023-07-13T09:44:12;15.80;;;14.27;;
20443;SDS011;10381;53.730;10.010;2023-07-13T09:48:15;15.60;;;14.00;;
20443;SDS011;10381;53.730;10.010;2023-07-13T09:52:16;15.93;;;14.43;;
20443;SDS011;10381;53.730;10.010;2023-07-13T09:56:20;18.13;;;16.30;;
20443;SDS011;10381;53.730;10.010;2023-07-13T10:00:29;14.93;;;13.48;;
20443;SDS011;10381;53.730;10.010;2023-07-13T10:04:33;11.90;;;10.65;;
20443;SDS011;10381;53.730;10.010;2023-07-13T10:08:35;12.73;;;9.55;;
20443;SDS011;10381;53.730;10.010;2023-07-13T10:12:36;9.18;;;8.27;;
20443;SDS011;10381;53.730;10.010;2023-07-13T10:16:38;12.60;;;10.35;;
20443;SDS011;10381;53.730;10.010;2023-07-13T10:20:43;7.90;;;7.18;;
20443;SDS011;10381;53.730;10.010;2023-07-13T10:24:43;6.95;;;6.25;;
20443;SDS011;10381;53.730;10.010;2023-07-13T10:28:45;11.85;;;6.88;;
20443;SDS011;10381;53.730;10.010;2023-07-13T10:32:51;7.60;;;5.00;;
20443;SDS011;10381;53.730;10.010;2023-07-13T10:36:52;8.15;;;5.95;;
20443;SDS011;10381;53.730;10.010;2023-07-13T10:45:00;7.10;;;5.40;;
20443;SDS011;10381;53.730;10.010;2023-07-13T10:49:02;10.07;;;4.57;;
20443;SDS011;10381;53.730;10.010;2023-07-13T10:57:42;8.82;;;5.05;;
20443;SDS011;10381;53.730;10.010;2023-07-13T11:23:15;5.90;;;4.78;;
20443;SDS011;10381;53.730;10.010;2023-07-13T11:27:36;4.50;;;4.07;;
20443;SDS011;10381;53.730;10.010;2023-07-13T11:31:39;4.55;;;3.85;;
20443;SDS011;10381;53.730;10.010;2023-07-13T11:39:50;7.78;;;7.03;;
20443;SDS011;10381;53.730;10.010;2023-07-13T11:44:01;7.10;;;5.25;;
20443;SDS011;10381;53.730;10.010;2023-07-13T11:48:16;5.18;;;4.65;;
20443;SDS011;10381;53.730;10.010;2023-07-13T11:52:31;5.28;;;4.78;;
20443;SDS011;10381;53.730;10.010;2023-07-13T11:56:35;4.28;;;3.92;;
20443;SDS011;10381;53.730;10.010;2023-07-13T12:00:37;16.02;;;11.98;;
20443;SDS011;10381;53.730;10.010;2023-07-13T12:04:38;16.02;;;14.57;;
20443;SDS011;10381;53.730;10.010;2023-07-13T12:08:39;21.00;;;15.00;;
20443;SDS011;10381;53.730;10.010;2023-07-13T12:12:55;18.02;;;15.57;;
20443;SDS011;10381;53.730;10.010;2023-07-13T12:16:57;18.40;;;16.60;;
20443;SDS011;10381;53.730;10.010;2023-07-13T12:20:58;18.20;;;16.30;;
20443;SDS011;10381;53.730;10.010;2023-07-13T12:24:59;15.90;;;14.50;;
20443;SDS011;10381;53.730;10.010;2023-07-13T12:29:00;14.63;;;13.27;;
20443;SDS011;10381;53.730;10.010;2023-07-13T12:33:05;14.20;;;12.73;;
20443;SDS011;10381;53.730;10.010;2023-07-13T12:37:11;14.88;;;11.27;;
20443;SDS011;10381;53.730;10.010;2023-07-13T12:41:12;11.02;;;9.77;;
20443;SDS011;10381;53.730;10.010;2023-07-13T12:45:17;10.73;;;9.40;;
20443;SDS011;10381;53.730;10.010;2023-07-13T12:49:25;12.20;;;11.00;;
20443;SDS011;10381;53.730;10.010;2023-07-13T12:53:29;18.60;;;10.98;;
20443;SDS011;10381;53.730;10.010;2023-07-13T12:57:38;18.33;;;16.48;;
20443;SDS011;10381;53.730;10.010;2023-07-13T13:01:40;22.38;;;19.92;;
20443;SDS011;10381;53.730;10.010;2023-07-13T13:05:41;19.52;;;17.42;;
20443;SDS011;10381;53.730;10.010;2023-07-13T13:09:42;21.08;;;18.98;;
20443;SDS011;10381;53.730;10.010;2023-07-13T13:13:43;16.73;;;15.17;;
20443;SDS011;10381;53.730;10.010;2023-07-13T13:17:44;19.60;;;13.30;;
20443;SDS011;10381;53.730;10.010;2023-07-13T13:21:45;14.60;;;11.30;;
20443;SDS011;10381;53.730;10.010;2023-07-13T13:25:46;12.50;;;11.13;;
20443;SDS011;10381;53.730;10.010;2023-07-13T13:29:50;14.10;;;12.13;;
20443;SDS011;10381;53.730;10.010;2023-07-13T13:33:54;17.00;;;12.65;;
20443;SDS011;10381;53.730;10.010;2023-07-13T13:37:54;19.77;;;12.35;;
20443;SDS011;10381;53.730;10.010;2023-07-13T13:41:55;16.58;;;12.15;;
20443;SDS011;10381;53.730;10.010;2023-07-13T13:45:55;12.15;;;11.05;;
20443;SDS011;10381;53.730;10.010;2023-07-13T13:49:57;19.67;;;10.75;;
20443;SDS011;10381;53.730;10.010;2023-07-13T13:53:58;11.13;;;10.23;;
20443;SDS011;10381;53.730;10.010;2023-07-13T13:57:58;11.37;;;10.20;;
20443;SDS011;10381;53.730;10.010;2023-07-13T14:01:59;12.17;;;10.97;;
20443;SDS011;10381;53.730;10.010;2023-07-13T14:06:00;12.00;;;10.90;;
20443;SDS011;10381;53.730;10.010;2023-07-13T14:10:01;14.43;;;11.27;;
20443;SDS011;10381;53.730;10.010;2023-07-13T14:14:01;15.85;;;12.82;;
20443;SDS011;10381;53.730;10.010;2023-07-13T14:18:03;14.43;;;13.02;;
20443;SDS011;10381;53.730;10.010;2023-07-13T14:22:04;14.30;;;12.90;;
20443;SDS011;10381;53.730;10.010;2023-07-13T14:26:18;20.25;;;14.02;;
20443;SDS011;10381;53.730;10.010;2023-07-13T14:30:21;16.88;;;14.63;;
20443;SDS011;10381;53.730;10.010;2023-07-13T14:34:22;16.77;;;14.05;;
20443;SDS011;10381;53.730;10.010;2023-07-13T14:38:22;18.15;;;15.32;;
20443;SDS011;10381;53.730;10.010;2023-07-13T14:42:23;15.97;;;14.40;;
20443;SDS011;10381;53.730;10.010;2023-07-13T14:46:31;17.20;;;14.75;;
20443;SDS011;10381;53.730;10.010;2023-07-13T14:50:33;15.63;;;14.27;;
20443;SDS011;10381;53.730;10.010;2023-07-13T14:54:35;17.08;;;15.38;;
20443;SDS011;10381;53.730;10.010;2023-07-13T14:58:36;17.10;;;15.40;;
20443;SDS011;10381;53.730;10.010;2023-07-13T15:02:36;17.10;;;15.45;;
20443;SDS011;10381;53.730;10.010;2023-07-13T15:10:57;13.95;;;12.65;;
20443;SDS011;10381;53.730;10.010;2023-07-13T15:15:00;13.60;;;12.35;;
20443;SDS011;10381;53.730;10.010;2023-07-13T15:19:00;10.83;;;9.83;;
20443;SDS011;10381;53.730;10.010;2023-07-13T15:23:02;8.20;;;4.75;;
20443;SDS011;10381;53.730;10.010;2023-07-13T15:27:04;6.93;;;5.93;;
20443;SDS011;10381;53.730;10.010;2023-07-13T15:31:17;5.40;;;4.60;;
20443;SDS011;10381;53.730;10.010;2023-07-13T15:35:20;4.80;;;4.40;;
20443;SDS011;10381;53.730;10.010;2023-07-13T15:39:27;6.40;;;4.25;;
20443;SDS011;10381;53.730;10.010;2023-07-13T15:43:32;3.75;;;3.53;;
20443;SDS011;10381;53.730;10.010;2023-07-13T15:47:33;9.40;;;4.50;;
20443;SDS011;10381;53.730;10.010;2023-07-13T15:51:33;5.13;;;4.50;;
20443;SDS011;10381;53.730;10.010;2023-07-13T15:55:36;5.28;;;4.88;;
20443;SDS011;10381;53.730;10.010;2023-07-13T15:59:40;5.25;;;4.85;;
20443;SDS011;10381;53.730;10.010;2023-07-13T16:03:41;8.45;;;5.75;;
20443;SDS011;10381;53.730;10.010;2023-07-13T16:07:42;6.65;;;6.05;;
20443;SDS011;10381;53.730;10.010;2023-07-13T16:11:45;6.47;;;5.82;;
20443;SDS011;10381;53.730;10.010;2023-07-13T16:15:46;5.28;;;4.43;;
20443;SDS011;10381;53.730;10.010;2023-07-13T16:19:49;6.35;;;4.80;;
20443;SDS011;10381;53.730;10.010;2023-07-13T16:23:49;5.63;;;5.05;;
20443;SDS011;10381;53.730;10.010;2023-07-13T16:27:52;5.47;;;5.00;;
20443;SDS011;10381;53.730;10.010;2023-07-13T16:32:07;7.72;;;6.50;;
20443;SDS011;10381;53.730;10.010;2023-07-13T16:36:11;10.15;;;6.78;;
20443;SDS011;10381;53.730;10.010;2023-07-13T16:40:22;8.02;;;5.70;;
20443;SDS011;10381;53.730;10.010;2023-07-13T16:44:24;4.35;;;3.97;;
20443;SDS011;10381;53.730;10.010;2023-07-13T16:48:25;5.95;;;5.45;;
20443;SDS011;10381;53.730;10.010;2023-07-13T16:52:29;5.55;;;5.07;;
20443;SDS011;10381;53.730;10.010;2023-07-13T16:56:29;7.33;;;6.73;;
20443;SDS011;10381;53.730;10.010;2023-07-13T17:00:30;8.20;;;6.77;;
20443;SDS011;10381;53.730;10.010;2023-07-13T17:04:32;6.63;;;6.05;;
20443;SDS011;10381;53.730;10.010;2023-07-13T17:08:32;9.03;;;6.23;;
20443;SDS011;10381;53.730;10.010;2023-07-13T17:12:33;4.77;;;3.80;;
20443;SDS011;10381;53.730;10.010;2023-07-13T17:16:33;4.70;;;4.30;;
20443;SDS011;10381;53.730;10.010;2023-07-13T17:20:35;5.93;;;5.32;;
20443;SDS011;10381;53.730;10.010;2023-07-13T17:24:42;4.95;;;4.47;;
20443;SDS011;10381;53.730;10.010;2023-07-13T17:28:44;5.68;;;5.20;;
20443;SDS011;10381;53.730;10.010;2023-07-13T17:32:44;5.30;;;4.55;;
20443;SDS011;10381;53.730;10.010;2023-07-13T17:36:47;4.40;;;4.07;;
20443;SDS011;10381;53.730;10.010;2023-07-13T17:40:48;4.57;;;4.05;;
20443;SDS011;10381;53.730;10.010;2023-07-13T17:44:48;6.60;;;4.87;;
20443;SDS011;10381;53.730;10.010;2023-07-13T17:48:48;6.03;;;4.97;;
20443;SDS011;10381;53.730;10.010;2023-07-13T17:52:51;6.20;;;5.55;;
20443;SDS011;10381;53.730;10.010;2023-07-13T17:56:51;7.20;;;6.60;;
20443;SDS011;10381;53.730;10.010;2023-07-13T18:00:52;6.68;;;6.18;;
20443;SDS011;10381;53.730;10.010;2023-07-13T18:04:54;9.57;;;8.48;;
20443;SDS011;10381;53.730;10.010;2023-07-13T18:08:56;15.90;;;9.63;;
20443;SDS011;10381;53.730;10.010;2023-07-13T18:12:57;10.50;;;9.50;;
20443;SDS011;10381;53.730;10.010;2023-07-13T18:16:58;11.18;;;9.80;;
20443;SDS011;10381;53.730;10.010;2023-07-13T18:21:01;10.35;;;9.20;;
20443;SDS011;10381;53.730;10.010;2023-07-13T18:25:01;11.30;;;10.30;;
20443;SDS011;10381;53.730;10.010;2023-07-13T18:29:11;13.73;;;11.85;;
20443;SDS011;10381;53.730;10.010;2023-07-13T18:33:22;14.17;;;11.70;;
20443;SDS011;10381;53.730;10.010;2023-07-13T18:37:24;15.90;;;12.95;;
20443;SDS011;10381;53.730;10.010;2023-07-13T18:41:25;14.63;;;11.98;;
20443;SDS011;10381;53.730;10.010;2023-07-13T18:45:26;12.93;;;11.60;;
20443;SDS011;10381;53.730;10.010;2023-07-13T18:49:26;14.90;;;12.67;;
20443;SDS011;10381;53.730;10.010;2023-07-13T18:53:26;13.55;;;12.25;;
20443;SDS011;10381;53.730;10.010;2023-07-13T18:57:27;13.70;;;12.30;;
20443;SDS011;10381;53.730;10.010;2023-07-13T19:01:32;13.35;;;12.05;;
20443;SDS011;10381;53.730;10.010;2023-07-13T19:05:36;12.20;;;11.15;;
20443;SDS011;10381;53.730;10.010;2023-07-13T19:09:37;12.27;;;11.00;;
20443;SDS011;10381;53.730;10.010;2023-07-13T19:13:39;14.13;;;11.38;;
20443;SDS011;10381;53.730;10.010;2023-07-13T19:17:41;11.82;;;10.77;;
20443;SDS011;10381;53.730;10.010;2023-07-13T19:21:41;12.67;;;10.43;;
20443;SDS011;10381;53.730;10.010;2023-07-13T19:25:44;11.48;;;10.25;;
20443;SDS011;10381;53.730;10.010;2023-07-13T19:29:45;10.48;;;9.07;;
20443;SDS011;10381;53.730;10.010;2023-07-13T19:33:45;18.58;;;8.68;;
20443;SDS011;10381;53.730;10.010;2023-07-13T19:37:47;14.80;;;9.20;;
20443;SDS011;10381;53.730;10.010;2023-07-13T19:41:47;8.52;;;7.78;;
20443;SDS011;10381;53.730;10.010;2023-07-13T19:45:47;8.90;;;7.97;;
20443;SDS011;10381;53.730;10.010;2023-07-13T19:49:48;7.90;;;7.10;;
20443;SDS011;10381;53.730;10.010;2023-07-13T19:53:50;7.40;;;6.82;;
20443;SDS011;10381;53.730;10.010;2023-07-13T19:57:52;14.40;;;7.75;;
20443;SDS011;10381;53.730;10.010;2023-07-13T20:01:53;11.65;;;5.93;;
20443;SDS011;10381;53.730;10.010;2023-07-13T20:05:53;7.05;;;6.07;;
20443;SDS011;10381;53.730;10.010;2023-07-13T20:09:54;7.43;;;6.20;;
20443;SDS011;10381;53.730;10.010;2023-07-13T20:13:54;10.75;;;6.13;;
20443;SDS011;10381;53.730;10.010;2023-07-13T20:17:55;13.63;;;5.63;;
20443;SDS011;10381;53.730;10.010;2023-07-13T20:21:57;8.35;;;5.75;;
20443;SDS011;10381;53.730;10.010;2023-07-13T20:25:58;9.77;;;4.73;;
20443;SDS011;10381;53.730;10.010;2023-07-13T20:29:58;10.30;;;4.97;;
20443;SDS011;10381;53.730;10.010;2023-07-13T20:34:02;9.63;;;5.40;;
20443;SDS011;10381;53.730;10.010;2023-07-13T20:38:03;15.73;;;8.63;;
20443;SDS011;10381;53.730;10.010;2023-07-13T20:42:09;9.88;;;6.07;;
20443;SDS011;10381;53.730;10.010;2023-07-13T20:46:12;7.03;;;4.55;;
20443;SDS011;10381;53.730;10.010;2023-07-13T20:50:16;6.53;;;4.05;;
20443;SDS011;10381;53.730;10.010;2023-07-13T20:54:19;7.13;;;4.28;;
20443;SDS011;10381;53.730;10.010;2023-07-13T20:58:19;10.90;;;4.30;;
20443;SDS011;10381;53.730;10.010;2023-07-13T21:02:24;6.75;;;4.13;;
20443;SDS011;10381;53.730;10.010;2023-07-13T21:06:32;4.80;;;3.97;;
20443;SDS011;10381;53.730;10.010;2023-07-13T21:10:33;5.93;;;4.28;;
20443;SDS011;10381;53.730;10.010;2023-07-13T21:14:33;7.23;;;3.73;;
20443;SDS011;10381;53.730;10.010;2023-07-13T21:18:34;10.50;;;3.90;;
20443;SDS011;10381;53.730;10.010;2023-07-13T21:22:37;11.23;;;4.00;;
20443;SDS011;10381;53.730;10.010;2023-07-13T21:26:37;6.00;;;4.20;;
20443;SDS011;10381;53.730;10.010;2023-07-13T21:30:38;5.07;;;3.53;;
20443;SDS011;10381;53.730;10.010;2023-07-13T21:34:40;8.10;;;3.08;;
20443;SDS011;10381;53.730;10.010;2023-07-13T21:38:41;4.45;;;3.50;;
20443;SDS011;10381;53.730;10.010;2023-07-13T21:42:42;8.27;;;3.22;;
20443;SDS011;10381;53.730;10.010;2023-07-13T21:46:42;4.10;;;3.38;;
20443;SDS011;10381;53.730;10.010;2023-07-13T21:50:44;4.93;;;3.30;;
20443;SDS011;10381;53.730;10.010;2023-07-13T21:54:45;11.23;;;3.25;;
20443;SDS011;10381;53.730;10.010;2023-07-13T21:58:46;4.72;;;2.95;;
20443;SDS011;10381;53.730;10.010;2023-07-13T22:02:48;8.30;;;3.83;;
20443;SDS011;10381;53.730;10.010;2023-07-13T22:06:52;4.82;;;3.40;;
20443;SDS011;10381;53.730;10.010;2023-07-13T22:10:55;5.78;;;3.80;;
20443;SDS011;10381;53.730;10.010;2023-07-13T22:14:58;5.45;;;3.53;;
20443;SDS011;10381;53.730;10.010;2023-07-13T22:18:59;5.60;;;3.80;;
20443;SDS011;10381;53.730;10.010;2023-07-13T22:23:07;5.13;;;3.78;;
20443;SDS011;10381;53.730;10.010;2023-07-13T22:27:14;6.55;;;3.85;;
20443;SDS011;10381;53.730;10.010;2023-07-13T22:31:17;5.80;;;4.15;;
20443;SDS011;10381;53.730;10.010;2023-07-13T22:35:17;8.70;;;4.40;;
20443;SDS011;10381;53.730;10.010;2023-07-13T22:39:23;8.73;;;4.00;;
20443;SDS011;10381;53.730;10.010;2023-07-13T22:43:26;8.05;;;4.50;;
20443;SDS011;10381;53.730;10.010;2023-07-13T22:47:27;12.98;;;4.65;;
20443;SDS011;10381;53.730;10.010;2023-07-13T22:51:27;8.77;;;4.47;;
20443;SDS011;10381;53.730;10.010;2023-07-13T22:55:27;13.63;;;4.53;;
20443;SDS011;10381;53.730;10.010;2023-07-13T22:59:27;8.57;;;5.63;;
20443;SDS011;10381;53.730;10.010;2023-07-13T23:03:31;9.27;;;4.97;;
20443;SDS011;10381;53.730;10.010;2023-07-13T23:07:33;10.55;;;5.35;;
20443;SDS011;10381;53.730;10.010;2023-07-13T23:11:34;21.73;;;5.85;;
20443;SDS011;10381;53.730;10.010;2023-07-13T23:15:34;12.03;;;5.60;;
20443;SDS011;10381;53.730;10.010;2023-07-13T23:19:34;21.02;;;6.35;;
20443;SDS011;10381;53.730;10.010;2023-07-13T23:23:35;9.80;;;6.20;;
20443;SDS011;10381;53.730;10.010;2023-07-13T23:27:35;9.85;;;5.68;;
20443;SDS011;10381;53.730;10.010;2023-07-13T23:31:36;14.17;;;6.03;;
20443;SDS011;10381;53.730;10.010;2023-07-13T23:35:36;14.35;;;6.45;;
20443;SDS011;10381;53.730;10.010;2023-07-13T23:39:37;14.00;;;6.57;;
20443;SDS011;10381;53.730;10.010;2023-07-13T23:43:38;14.18;;;6.85;;
20443;SDS011;10381;53.730;10.010;2023-07-13T23:47:38;14.48;;;7.00;;
20443;SDS011;10381;53.730;10.010;2023-07-13T23:51:38;23.50;;;7.57;;
20443;SDS011;10381;53.730;10.010;2023-07-13T23:55:39;17.43;;;8.40;;
20443;SDS011;10381;53.730;10.010;2023-07-13T23:59:39;15.02;;;7.63;;
